Time;durP1;ratioP1;P1;durP2;ratioP2;P2;SDS_P1;SDS_P2;PMS_P1;PMS_P2;Temp;Humidity;BMP_temperature;BMP_pressure;BME280_temperature;BME280_humidity;BME280_pressure;Samples;Min_cycle;Max_cycle;Signal;HPM_P1;HPM_P2
2022/06/01 00:00:55;;;;;;;;;;;9.10;99.90;;;;;;5087486;28;19954;-75
2022/06/01 00:03:21;;;;;;;;;;;9.40;99.90;;;;;;5093902;28;19960;-74
2022/06/01 00:05:46;;;;;;;;;;;9.40;99.90;;;;;;5094252;28;19956;-74
2022/06/01 00:08:12;;;;;;;;;;;9.50;99.90;;;;;;5094049;28;19959;-75
2022/06/01 00:10:37;;;;;;;;;;;9.60;99.90;;;;;;5080449;28;19944;-74
2022/06/01 00:13:03;;;;;;;;;;;9.50;99.90;;;;;;5074228;28;20092;-74
2022/06/01 00:15:30;;;;;;;;;;;9.40;99.90;;;;;;5074099;28;19920;-75
2022/06/01 00:17:57;;;;;;;;;;;9.20;99.90;;;;;;5074649;28;20081;-76
2022/06/01 00:20:22;;;;;;;;;;;9.00;99.90;;;;;;5092775;28;19912;-75
2022/06/01 00:22:48;;;;;;;;;;;9.20;99.90;;;;;;5093726;28;20381;-75
2022/06/01 00:25:14;;;;;;;;;;;9.30;99.90;;;;;;5093038;28;19916;-75
2022/06/01 00:27:39;;;;;;;;;;;9.60;99.90;;;;;;5093700;28;20003;-75
2022/06/01 00:30:07;;;;;;;;;;;9.80;99.90;;;;;;5085125;28;19915;-75
2022/06/01 00:32:32;;;;;;;;;;;9.90;99.90;;;;;;5086752;28;19944;-75
2022/06/01 00:34:59;;;;;;;;;;;10.10;99.90;;;;;;5073909;28;19954;-76
2022/06/01 00:37:25;;;;;;;;;;;10.00;99.90;;;;;;5073270;28;20421;-75
2022/06/01 00:39:50;;;;;;;;;;;9.80;99.90;;;;;;5090653;28;19991;-76
2022/06/01 00:42:21;;;;;;;;;;;9.50;99.90;;;;;;5093309;28;19908;-76
2022/06/01 00:44:47;;;;;;;;;;;9.30;99.90;;;;;;5093024;28;19966;-76
2022/06/01 00:47:15;;;;;;;;;;;9.20;99.90;;;;;;5093431;28;19919;-75
2022/06/01 00:49:41;;;;;;;;;;;9.10;99.90;;;;;;5093105;28;19914;-76
2022/06/01 00:52:07;;;;;;;;;;;8.90;99.90;;;;;;5092934;28;19908;-76
2022/06/01 00:54:33;;;;;;;;;;;8.90;99.90;;;;;;5091924;28;20381;-76
2022/06/01 00:57:03;;;;;;;;;;;9.00;99.90;;;;;;5093337;28;20478;-76
2022/06/01 00:59:33;;;;;;;;;;;9.00;99.90;;;;;;5087870;28;19908;-76
2022/06/01 01:01:58;;;;;;;;;;;9.00;99.90;;;;;;5075883;28;19967;-76
2022/06/01 01:04:24;;;;;;;;;;;8.90;99.90;;;;;;5073070;28;20326;-76
2022/06/01 01:06:50;;;;;;;;;;;8.80;99.90;;;;;;5083545;28;20002;-76
2022/06/01 01:09:16;;;;;;;;;;;8.80;99.90;;;;;;5083430;28;19915;-76
2022/06/01 01:11:42;;;;;;;;;;;8.80;99.90;;;;;;5072874;28;19909;-76
2022/06/01 01:14:08;;;;;;;;;;;8.80;99.90;;;;;;5071885;28;20393;-76
2022/06/01 01:16:34;;;;;;;;;;;8.70;99.90;;;;;;5073574;28;19958;-76
2022/06/01 01:19:01;;;;;;;;;;;8.80;99.90;;;;;;5073402;28;19952;-75
2022/06/01 01:21:29;;;;;;;;;;;8.70;99.90;;;;;;5072888;28;19920;-76
2022/06/01 01:23:56;;;;;;;;;;;8.70;99.90;;;;;;5072936;28;20262;-76
2022/06/01 01:26:22;;;;;;;;;;;8.70;99.90;;;;;;5073162;28;20378;-76
2022/06/01 01:28:48;;;;;;;;;;;8.60;99.90;;;;;;5075253;28;19920;-76
2022/06/01 01:31:16;;;;;;;;;;;8.60;99.90;;;;;;5083018;28;19908;-76
2022/06/01 01:33:43;;;;;;;;;;;8.40;99.90;;;;;;5072754;28;20061;-76
2022/06/01 01:36:10;;;;;;;;;;;8.20;99.90;;;;;;5073437;28;19912;-76
2022/06/01 01:38:38;;;;;;;;;;;8.10;99.90;;;;;;5073409;28;19916;-75
2022/06/01 01:41:09;;;;;;;;;;;8.00;99.90;;;;;;5072181;28;19908;-76
2022/06/01 01:43:59;;;;;;;;;;;8.10;99.90;;;;;;5085084;28;19908;-75
2022/06/01 01:46:25;;;;;;;;;;;7.90;99.90;;;;;;5073012;28;20011;-76
2022/06/01 01:48:50;;;;;;;;;;;7.90;99.90;;;;;;5077843;28;19943;-76
2022/06/01 01:51:23;;;;;;;;;;;7.70;99.90;;;;;;5087604;28;19914;-76
2022/06/01 01:53:49;;;;;;;;;;;7.60;99.90;;;;;;5092526;28;19912;-75
2022/06/01 01:56:14;;;;;;;;;;;7.70;99.90;;;;;;5090511;28;19995;-76
2022/06/01 01:58:43;;;;;;;;;;;7.80;99.90;;;;;;5088081;28;19908;-75
2022/06/01 02:01:19;;;;;;;;;;;7.70;99.90;;;;;;5080920;28;19911;-76
2022/06/01 02:04:05;;;;;;;;;;;7.70;99.90;;;;;;5075759;28;19991;-75
2022/06/01 02:06:44;;;;;;;;;;;7.70;99.90;;;;;;5074446;28;20001;-76
2022/06/01 02:09:11;;;;;;;;;;;7.60;99.90;;;;;;5091866;28;19961;-76
2022/06/01 02:14:34;;;;;;;;;;;7.40;99.90;;;;;;5091135;28;19916;-76
2022/06/01 02:17:01;;;;;;;;;;;7.30;99.90;;;;;;5091818;28;20395;-76
2022/06/01 02:19:30;;;;;;;;;;;7.40;99.90;;;;;;5091535;28;19915;-76
2022/06/01 02:21:56;;;;;;;;;;;7.40;99.90;;;;;;5091196;28;20259;-76
2022/06/01 02:24:24;;;;;;;;;;;7.30;99.90;;;;;;5091046;28;19915;-76
2022/06/01 02:26:52;;;;;;;;;;;7.20;99.90;;;;;;5090039;28;19916;-76
2022/06/01 02:29:20;;;;;;;;;;;7.40;99.90;;;;;;5086486;28;19918;-76
2022/06/01 02:31:46;;;;;;;;;;;7.40;99.90;;;;;;5075841;28;19915;-75
2022/06/01 02:34:12;;;;;;;;;;;7.50;99.90;;;;;;5071534;28;19909;-76
2022/06/01 02:36:39;;;;;;;;;;;7.50;99.90;;;;;;5072022;28;19913;-76
2022/06/01 02:39:07;;;;;;;;;;;7.50;99.90;;;;;;5073046;28;20388;-76
2022/06/01 02:44:18;;;;;;;;;;;7.40;99.90;;;;;;5071264;28;20046;-75
2022/06/01 02:46:43;;;;;;;;;;;7.60;99.90;;;;;;5072005;28;19917;-76
2022/06/01 02:49:09;;;;;;;;;;;7.60;99.90;;;;;;5070603;28;19908;-76
2022/06/01 02:51:34;;;;;;;;;;;7.40;99.90;;;;;;5073989;28;19912;-76
2022/06/01 02:54:00;;;;;;;;;;;7.30;99.90;;;;;;5090338;28;19912;-76
2022/06/01 02:56:25;;;;;;;;;;;7.10;99.90;;;;;;5089470;28;19908;-76
2022/06/01 02:58:51;;;;;;;;;;;7.10;99.90;;;;;;5087157;28;19909;-76
2022/06/01 03:01:16;;;;;;;;;;;7.00;99.90;;;;;;5088787;28;19908;-76
2022/06/01 03:03:42;;;;;;;;;;;6.90;99.90;;;;;;5070813;28;19908;-76
2022/06/01 03:06:08;;;;;;;;;;;6.90;99.90;;;;;;5070166;28;19923;-76
2022/06/01 03:08:33;;;;;;;;;;;6.90;99.90;;;;;;5078122;28;20250;-76
2022/06/01 03:10:59;;;;;;;;;;;6.70;99.90;;;;;;5071336;28;19912;-76
2022/06/01 03:13:24;;;;;;;;;;;6.70;99.90;;;;;;5070181;28;19919;-76
2022/06/01 03:15:51;;;;;;;;;;;6.80;99.90;;;;;;5071485;28;19962;-76
2022/06/01 03:18:16;;;;;;;;;;;6.80;99.90;;;;;;5084720;28;19916;-76
2022/06/01 03:20:42;;;;;;;;;;;6.90;99.90;;;;;;5090705;28;19909;-76
2022/06/01 03:23:07;;;;;;;;;;;6.90;99.90;;;;;;5070402;28;19916;-75
2022/06/01 03:25:34;;;;;;;;;;;6.80;99.90;;;;;;5077312;28;19953;-76
2022/06/01 03:28:01;;;;;;;;;;;6.80;99.90;;;;;;5090732;28;20417;-76
2022/06/01 03:30:27;;;;;;;;;;;6.90;99.90;;;;;;5074598;28;19991;-76
2022/06/01 03:32:53;;;;;;;;;;;6.90;99.90;;;;;;5080826;28;19908;-76
2022/06/01 03:35:21;;;;;;;;;;;6.90;99.90;;;;;;5070792;28;20001;-76
2022/06/01 03:37:46;;;;;;;;;;;7.00;99.90;;;;;;5071397;28;20010;-76
2022/06/01 03:40:13;;;;;;;;;;;6.80;99.90;;;;;;5081979;28;19991;-76
2022/06/01 03:42:38;;;;;;;;;;;6.80;99.90;;;;;;5090139;28;19911;-76
2022/06/01 03:47:49;;;;;;;;;;;6.80;99.90;;;;;;5083586;28;19923;-76
2022/06/01 03:50:17;;;;;;;;;;;6.70;99.90;;;;;;5077173;28;19912;-76
2022/06/01 03:52:45;;;;;;;;;;;6.70;99.90;;;;;;5069667;28;19937;-76
2022/06/01 03:55:11;;;;;;;;;;;6.60;99.90;;;;;;5070666;28;20429;-76
2022/06/01 03:57:36;;;;;;;;;;;6.50;99.90;;;;;;5071237;28;20023;-76
2022/06/01 04:00:02;;;;;;;;;;;6.50;99.90;;;;;;5070120;28;19915;-76
2022/06/01 04:02:28;;;;;;;;;;;6.60;99.90;;;;;;5070432;28;20405;-75
2022/06/01 04:04:53;;;;;;;;;;;6.70;99.90;;;;;;5070132;28;19915;-76
2022/06/01 04:07:19;;;;;;;;;;;6.80;99.90;;;;;;5090346;28;19912;-76
2022/06/01 04:09:45;;;;;;;;;;;6.80;99.90;;;;;;5088450;28;19914;-75
2022/06/01 04:12:10;;;;;;;;;;;6.80;99.90;;;;;;5069596;28;20308;-76
2022/06/01 04:14:36;;;;;;;;;;;6.90;99.90;;;;;;5070312;28;19915;-76
2022/06/01 04:17:01;;;;;;;;;;;7.00;99.90;;;;;;5079012;28;20016;-76
2022/06/01 04:19:27;;;;;;;;;;;7.10;99.90;;;;;;5081406;28;19962;-76
2022/06/01 04:21:53;;;;;;;;;;;7.30;99.90;;;;;;5070382;28;19964;-76
2022/06/01 04:24:26;;;;;;;;;;;7.50;99.90;;;;;;5071490;28;19908;-76
2022/06/01 04:26:52;;;;;;;;;;;7.40;99.90;;;;;;5074445;28;19944;-76
2022/06/01 04:29:17;;;;;;;;;;;7.40;99.90;;;;;;5081199;28;19912;-76
2022/06/01 04:31:43;;;;;;;;;;;7.50;99.90;;;;;;5073694;28;20486;-75
2022/06/01 04:34:09;;;;;;;;;;;7.50;99.90;;;;;;5074189;28;20305;-76
2022/06/01 04:36:35;;;;;;;;;;;7.70;99.90;;;;;;5072986;28;19915;-75
2022/06/01 04:39:00;;;;;;;;;;;7.70;99.90;;;;;;5074057;28;19909;-76
2022/06/01 04:41:26;;;;;;;;;;;7.80;99.90;;;;;;5080676;28;19915;-76
2022/06/01 04:43:51;;;;;;;;;;;7.90;99.90;;;;;;5073663;28;19908;-76
2022/06/01 04:46:16;;;;;;;;;;;8.20;99.90;;;;;;5073132;28;19944;-76
2022/06/01 04:48:42;;;;;;;;;;;8.30;99.90;;;;;;5081417;28;19915;-76
2022/06/01 04:51:08;;;;;;;;;;;8.40;99.90;;;;;;5079929;28;19999;-76
2022/06/01 04:53:33;;;;;;;;;;;8.50;99.90;;;;;;5073009;28;19909;-75
2022/06/01 04:55:59;;;;;;;;;;;8.70;99.90;;;;;;5074367;28;19954;-76
2022/06/01 04:58:24;;;;;;;;;;;8.80;99.90;;;;;;5075075;28;20357;-75
2022/06/01 05:00:50;;;;;;;;;;;8.80;99.90;;;;;;5074056;28;19912;-76
2022/06/01 05:03:15;;;;;;;;;;;9.00;99.90;;;;;;5072673;28;19909;-76
2022/06/01 05:05:41;;;;;;;;;;;9.20;99.90;;;;;;5073839;28;19908;-76
2022/06/01 05:08:08;;;;;;;;;;;9.30;99.90;;;;;;5073734;28;20388;-76
2022/06/01 05:10:33;;;;;;;;;;;9.40;99.90;;;;;;5073829;28;19909;-76
2022/06/01 05:12:59;;;;;;;;;;;9.50;99.90;;;;;;5074100;28;20003;-75
2022/06/01 05:15:24;;;;;;;;;;;9.80;99.90;;;;;;5072398;28;19915;-76
2022/06/01 05:17:50;;;;;;;;;;;9.90;99.90;;;;;;5081334;28;20421;-76
2022/06/01 05:20:15;;;;;;;;;;;10.20;99.90;;;;;;5086954;28;19915;-76
2022/06/01 05:22:41;;;;;;;;;;;10.30;99.90;;;;;;5072899;28;20324;-76
2022/06/01 05:25:07;;;;;;;;;;;10.40;99.90;;;;;;5073072;28;20004;-76
2022/06/01 05:27:32;;;;;;;;;;;10.50;99.90;;;;;;5073447;28;19912;-76
2022/06/01 05:29:58;;;;;;;;;;;10.70;99.90;;;;;;5072214;28;19913;-76
2022/06/01 05:32:23;;;;;;;;;;;10.90;99.90;;;;;;5091475;28;20269;-76
2022/06/01 05:34:49;;;;;;;;;;;10.90;99.90;;;;;;5091697;28;19915;-76
2022/06/01 05:37:15;;;;;;;;;;;11.10;99.90;;;;;;5092026;28;20386;-76
2022/06/01 05:39:40;;;;;;;;;;;11.30;99.90;;;;;;5087422;28;19912;-76
2022/06/01 05:42:06;;;;;;;;;;;11.60;99.90;;;;;;5087551;28;19915;-77
2022/06/01 05:44:31;;;;;;;;;;;12.50;99.90;;;;;;5085491;28;19930;-76
2022/06/01 05:46:57;;;;;;;;;;;13.10;99.90;;;;;;5086925;28;19912;-76
2022/06/01 05:49:23;;;;;;;;;;;13.20;99.90;;;;;;5077067;28;19908;-76
2022/06/01 05:51:48;;;;;;;;;;;14.40;99.90;;;;;;5082111;28;20399;-76
2022/06/01 05:54:14;;;;;;;;;;;14.60;99.90;;;;;;5088284;28;19908;-76
2022/06/01 05:56:40;;;;;;;;;;;14.20;99.90;;;;;;5076119;28;19931;-76
2022/06/01 05:59:05;;;;;;;;;;;15.60;99.90;;;;;;5079841;28;20290;-73
2022/06/01 06:01:31;;;;;;;;;;;16.30;99.90;;;;;;5075288;28;19908;-74
2022/06/01 06:03:57;;;;;;;;;;;16.30;99.90;;;;;;5085646;28;19912;-76
2022/06/01 06:06:23;;;;;;;;;;;16.30;99.90;;;;;;5086831;28;19918;-76
2022/06/01 06:08:53;;;;;;;;;;;15.40;99.90;;;;;;5089121;28;20369;-76
2022/06/01 06:11:19;;;;;;;;;;;14.90;99.90;;;;;;5090812;28;19908;-76
2022/06/01 06:13:45;;;;;;;;;;;14.40;99.90;;;;;;5082255;28;19909;-75
2022/06/01 06:16:12;;;;;;;;;;;14.50;99.90;;;;;;5092926;28;19909;-75
2022/06/01 06:18:37;;;;;;;;;;;14.00;99.90;;;;;;5091405;28;19915;-76
2022/06/01 06:21:03;;;;;;;;;;;14.80;99.90;;;;;;5081301;28;19912;-76
2022/06/01 06:23:28;;;;;;;;;;;15.80;99.90;;;;;;5092675;28;19915;-76
2022/06/01 06:25:54;;;;;;;;;;;16.90;99.90;;;;;;5093633;28;19908;-76
2022/06/01 06:28:20;;;;;;;;;;;16.90;99.90;;;;;;5093372;28;19914;-76
2022/06/01 06:30:45;;;;;;;;;;;17.20;99.90;;;;;;5092279;28;20438;-76
2022/06/01 06:33:11;;;;;;;;;;;17.30;99.90;;;;;;5078842;28;19919;-76
2022/06/01 06:35:36;;;;;;;;;;;17.40;99.90;;;;;;5079858;28;19908;-76
2022/06/01 06:38:02;;;;;;;;;;;17.70;99.90;;;;;;5093352;28;19912;-76
2022/06/01 06:40:28;;;;;;;;;;;16.70;99.90;;;;;;5075332;28;19913;-76
2022/06/01 06:42:53;;;;;;;;;;;17.00;99.90;;;;;;5081901;28;19909;-76
2022/06/01 06:45:19;;;;;;;;;;;17.60;99.90;;;;;;5072335;28;20381;-77
2022/06/01 06:47:45;;;;;;;;;;;18.00;99.90;;;;;;5078494;28;20297;-77
2022/06/01 06:50:11;;;;;;;;;;;18.30;99.90;;;;;;5091701;28;19908;-76
2022/06/01 06:52:37;;;;;;;;;;;18.40;99.90;;;;;;5091166;28;19912;-76
2022/06/01 06:55:04;;;;;;;;;;;18.80;99.90;;;;;;5091226;28;19961;-76
2022/06/01 06:57:30;;;;;;;;;;;18.90;99.90;;;;;;5088470;28;19908;-75
2022/06/01 06:59:55;;;;;;;;;;;19.10;99.10;;;;;;5087759;28;19915;-75
2022/06/01 07:02:21;;;;;;;;;;;19.30;98.10;;;;;;5071006;28;19980;-75
2022/06/01 07:04:47;;;;;;;;;;;19.90;97.80;;;;;;5068503;28;19908;-76
2022/06/01 07:07:16;;;;;;;;;;;20.10;97.20;;;;;;5069158;28;20289;-76
2022/06/01 07:09:42;;;;;;;;;;;20.00;95.70;;;;;;5086994;28;19916;-77
2022/06/01 07:12:07;;;;;;;;;;;19.70;95.80;;;;;;5080809;28;19908;-77
2022/06/01 07:14:33;;;;;;;;;;;19.40;96.70;;;;;;5090593;28;20280;-77
2022/06/01 07:16:59;;;;;;;;;;;19.70;96.00;;;;;;5092338;28;19915;-76
2022/06/01 07:19:25;;;;;;;;;;;20.50;95.20;;;;;;5091751;28;20339;-76
2022/06/01 07:21:51;;;;;;;;;;;20.50;94.30;;;;;;5088857;28;19923;-76
2022/06/01 07:24:16;;;;;;;;;;;21.10;94.70;;;;;;5072248;28;19914;-77
2022/06/01 07:26:43;;;;;;;;;;;21.60;92.30;;;;;;5072822;28;20015;-76
2022/06/01 07:29:09;;;;;;;;;;;21.20;91.90;;;;;;5072243;28;19935;-77
2022/06/01 07:31:35;;;;;;;;;;;21.00;91.10;;;;;;5071773;28;20357;-75
2022/06/01 07:34:00;;;;;;;;;;;21.30;91.50;;;;;;5072036;28;19909;-76
2022/06/01 07:36:27;;;;;;;;;;;21.30;89.40;;;;;;5072196;28;20263;-75
2022/06/01 07:44:31;;;;;;;;;;;21.80;88.00;;;;;;5072018;28;19916;-76
2022/06/01 07:46:57;;;;;;;;;;;22.70;89.40;;;;;;5085909;28;19912;-76
2022/06/01 07:49:23;;;;;;;;;;;22.70;87.40;;;;;;5091504;28;19954;-77
2022/06/01 07:51:48;;;;;;;;;;;23.00;88.40;;;;;;5091176;28;19919;-76
2022/06/01 07:54:14;;;;;;;;;;;23.10;85.10;;;;;;5078672;28;19909;-76
2022/06/01 07:56:40;;;;;;;;;;;22.90;84.30;;;;;;5093133;28;19915;-76
2022/06/01 07:59:06;;;;;;;;;;;23.10;85.50;;;;;;5071855;28;20293;-76
2022/06/01 08:01:32;;;;;;;;;;;23.60;81.60;;;;;;5088521;28;19915;-76
2022/06/01 08:03:58;;;;;;;;;;;23.20;83.30;;;;;;5095105;28;20012;-76
2022/06/01 08:06:25;;;;;;;;;;;23.70;81.40;;;;;;5096055;28;19919;-76
2022/06/01 08:08:51;;;;;;;;;;;23.40;78.50;;;;;;5086922;28;20030;-77
2022/06/01 08:11:16;;;;;;;;;;;23.70;76.90;;;;;;5083677;28;19969;-76
2022/06/01 08:13:42;;;;;;;;;;;23.90;76.90;;;;;;5080075;28;20011;-76
2022/06/01 08:16:07;;;;;;;;;;;22.60;81.20;;;;;;5094253;28;19919;-76
2022/06/01 08:18:33;;;;;;;;;;;23.40;81.90;;;;;;5094688;28;19909;-77
2022/06/01 08:20:59;;;;;;;;;;;24.20;79.10;;;;;;5089212;28;19963;-77
2022/06/01 08:23:25;;;;;;;;;;;25.20;79.40;;;;;;5083206;28;19920;-77
2022/06/01 08:25:51;;;;;;;;;;;25.70;75.10;;;;;;5083082;28;19908;-77
2022/06/01 08:28:17;;;;;;;;;;;26.00;74.90;;;;;;5074222;28;19999;-77
2022/06/01 08:30:42;;;;;;;;;;;25.90;71.70;;;;;;5075661;28;19908;-77
2022/06/01 08:33:08;;;;;;;;;;;26.10;67.00;;;;;;5072953;28;19912;-76
2022/06/01 08:35:38;;;;;;;;;;;24.20;69.40;;;;;;5075667;28;19954;-76
2022/06/01 08:38:03;;;;;;;;;;;24.20;75.30;;;;;;5075669;28;20412;-77
2022/06/01 08:40:36;;;;;;;;;;;25.30;72.80;;;;;;5094170;28;19908;-75
2022/06/01 08:43:06;;;;;;;;;;;24.00;67.30;;;;;;5077292;28;19915;-76
2022/06/01 08:45:32;;;;;;;;;;;21.50;69.70;;;;;;5093110;28;19909;-76
2022/06/01 08:47:59;;;;;;;;;;;20.60;76.60;;;;;;5094745;28;19923;-77
2022/06/01 08:50:29;;;;;;;;;;;20.20;76.10;;;;;;5093810;28;19954;-77
2022/06/01 08:52:56;;;;;;;;;;;20.30;77.00;;;;;;5090081;28;19912;-77
2022/06/01 08:55:22;;;;;;;;;;;19.80;75.00;;;;;;5079088;28;19971;-77
2022/06/01 08:57:56;;;;;;;;;;;19.30;74.60;;;;;;5094699;28;19943;-77
2022/06/01 09:00:22;;;;;;;;;;;19.10;75.30;;;;;;5094858;28;19998;-77
2022/06/01 09:02:57;;;;;;;;;;;19.00;77.10;;;;;;5094670;28;19940;-77
2022/06/01 09:05:25;;;;;;;;;;;19.30;76.70;;;;;;5093985;28;19908;-77
2022/06/01 09:07:59;;;;;;;;;;;19.40;76.40;;;;;;5081643;28;19912;-77
2022/06/01 09:10:36;;;;;;;;;;;19.60;75.50;;;;;;5088962;28;20441;-78
2022/06/01 09:13:07;;;;;;;;;;;21.50;75.00;;;;;;5081946;28;19908;-77
2022/06/01 09:15:39;;;;;;;;;;;23.60;70.80;;;;;;5074207;28;19908;-77
2022/06/01 09:18:05;;;;;;;;;;;24.20;67.30;;;;;;5090474;28;19934;-77
2022/06/01 09:23:15;;;;;;;;;;;24.40;64.50;;;;;;5074054;28;20347;-79
2022/06/01 09:25:50;;;;;;;;;;;24.40;64.70;;;;;;5074063;28;19912;-76
2022/06/01 09:28:21;;;;;;;;;;;23.60;63.30;;;;;;5077086;28;19951;-76
2022/06/01 09:31:01;;;;;;;;;;;23.20;62.90;;;;;;5075931;28;19981;-77
2022/06/01 09:33:30;;;;;;;;;;;23.80;65.70;;;;;;5071609;28;19912;-77
2022/06/01 09:36:08;;;;;;;;;;;24.60;67.70;;;;;;5073678;28;19909;-76
2022/06/01 09:38:51;;;;;;;;;;;23.90;62.90;;;;;;5073648;28;19996;-77
2022/06/01 09:41:19;;;;;;;;;;;23.10;63.60;;;;;;5074989;28;19991;-77
2022/06/01 09:43:49;;;;;;;;;;;23.80;66.40;;;;;;5083796;28;20212;-77
2022/06/01 09:46:35;;;;;;;;;;;23.10;62.30;;;;;;5092841;28;19911;-76
2022/06/01 09:49:05;;;;;;;;;;;23.40;63.00;;;;;;5084924;28;20007;-77
2022/06/01 09:51:32;;;;;;;;;;;23.40;64.50;;;;;;5071783;28;19909;-78
2022/06/01 09:54:15;;;;;;;;;;;22.90;62.60;;;;;;5071585;28;20157;-77
2022/06/01 09:56:46;;;;;;;;;;;22.40;61.30;;;;;;5077064;28;19991;-76
2022/06/01 10:07:40;;;;;;;;;;;23.20;63.70;;;;;;5086190;28;20445;-77
2022/06/01 10:10:06;;;;;;;;;;;23.50;62.70;;;;;;5091049;28;19907;-77
2022/06/01 10:12:51;;;;;;;;;;;23.60;61.40;;;;;;5075273;28;19935;-77
2022/06/01 10:15:39;;;;;;;;;;;24.50;63.20;;;;;;5080813;28;19908;-77
2022/06/01 10:18:12;;;;;;;;;;;25.50;63.30;;;;;;5092124;28;19908;-77
2022/06/01 10:20:42;;;;;;;;;;;25.10;61.40;;;;;;5092040;28;19912;-77
2022/06/01 10:23:11;;;;;;;;;;;24.00;61.10;;;;;;5091020;28;19916;-77
2022/06/01 10:25:39;;;;;;;;;;;23.80;65.60;;;;;;5092003;28;19951;-77
2022/06/01 10:28:07;;;;;;;;;;;23.20;61.20;;;;;;5092109;28;19912;-77
2022/06/01 10:30:36;;;;;;;;;;;23.10;61.20;;;;;;5092153;28;20357;-77
2022/06/01 10:33:05;;;;;;;;;;;22.40;62.00;;;;;;5091436;28;19915;-77
2022/06/01 10:35:45;;;;;;;;;;;23.60;58.30;;;;;;5090637;28;19934;-77
2022/06/01 10:38:14;;;;;;;;;;;24.80;67.90;;;;;;5072533;28;20419;-76
2022/06/01 10:40:55;;;;;;;;;;;24.00;59.30;;;;;;5080450;28;20361;-78
2022/06/01 10:43:28;;;;;;;;;;;23.30;62.20;;;;;;5077868;28;19908;-77
2022/06/01 10:46:00;;;;;;;;;;;22.90;59.30;;;;;;5072423;28;19939;-77
2022/06/01 10:48:28;;;;;;;;;;;22.90;61.30;;;;;;5072152;28;20324;-77
2022/06/01 10:51:09;;;;;;;;;;;22.70;61.20;;;;;;5072371;28;19913;-77
2022/06/01 10:53:55;;;;;;;;;;;22.00;58.40;;;;;;5084461;28;19913;-78
2022/06/01 10:56:21;;;;;;;;;;;21.60;60.10;;;;;;5090245;28;19918;-77
2022/06/01 10:58:47;;;;;;;;;;;22.20;61.70;;;;;;5090378;28;20025;-77
2022/06/01 11:01:19;;;;;;;;;;;22.40;59.40;;;;;;5091409;28;19908;-77
2022/06/01 11:03:58;;;;;;;;;;;23.30;58.70;;;;;;5089615;28;20003;-77
2022/06/01 11:06:42;;;;;;;;;;;24.40;59.90;;;;;;5091387;28;19916;-77
2022/06/01 11:09:25;;;;;;;;;;;23.90;58.50;;;;;;5092204;28;19908;-77
2022/06/01 11:11:57;;;;;;;;;;;24.20;63.90;;;;;;5077696;28;19909;-77
2022/06/01 11:14:22;;;;;;;;;;;24.90;62.40;;;;;;5071341;28;19909;-77
2022/06/01 11:16:47;;;;;;;;;;;23.40;57.90;;;;;;5071886;28;20310;-77
2022/06/01 11:19:32;;;;;;;;;;;24.70;60.30;;;;;;5071704;28;19961;-78
2022/06/01 11:22:08;;;;;;;;;;;26.60;57.50;;;;;;5070363;28;20011;-78
2022/06/01 11:24:45;;;;;;;;;;;25.60;57.70;;;;;;5071572;28;19915;-78
2022/06/01 11:27:11;;;;;;;;;;;26.10;56.90;;;;;;5085166;28;19919;-77
2022/06/01 11:29:42;;;;;;;;;;;26.70;56.90;;;;;;5084829;28;20366;-77
2022/06/01 11:32:11;;;;;;;;;;;26.00;57.30;;;;;;5071508;28;19908;-78
2022/06/01 11:34:45;;;;;;;;;;;25.40;59.30;;;;;;5071868;28;20285;-78
2022/06/01 11:37:18;;;;;;;;;;;25.40;58.30;;;;;;5075753;28;19909;-77
2022/06/01 11:39:53;;;;;;;;;;;25.50;55.20;;;;;;5093210;28;19919;-77
2022/06/01 11:42:26;;;;;;;;;;;25.70;54.00;;;;;;5084565;28;19913;-77
2022/06/01 11:44:54;;;;;;;;;;;25.90;55.40;;;;;;5075179;28;19958;-78
2022/06/01 11:47:20;;;;;;;;;;;26.00;53.00;;;;;;5079432;28;19924;-77
2022/06/01 11:50:01;;;;;;;;;;;25.40;57.40;;;;;;5077806;28;19909;-77
2022/06/01 11:52:35;;;;;;;;;;;25.20;57.30;;;;;;5094806;28;20349;-77
2022/06/01 11:55:21;;;;;;;;;;;24.70;55.50;;;;;;5094505;28;19908;-77
2022/06/01 11:57:54;;;;;;;;;;;24.40;56.80;;;;;;5095187;28;20408;-77
2022/06/01 12:00:21;;;;;;;;;;;24.20;61.10;;;;;;5078061;28;19908;-78
2022/06/01 12:02:50;;;;;;;;;;;25.10;59.30;;;;;;5074836;28;20002;-77
2022/06/01 12:05:28;;;;;;;;;;;24.70;57.60;;;;;;5075189;28;19915;-77
2022/06/01 12:07:54;;;;;;;;;;;24.90;54.60;;;;;;5092356;28;20325;-78
2022/06/01 12:10:20;;;;;;;;;;;26.70;57.30;;;;;;5079900;28;19908;-77
2022/06/01 12:13:06;;;;;;;;;;;27.20;57.20;;;;;;5085206;28;19914;-77
2022/06/01 12:15:38;;;;;;;;;;;26.50;51.70;;;;;;5086827;28;19915;-76
2022/06/01 12:18:12;;;;;;;;;;;26.90;50.70;;;;;;5094734;28;19912;-78
2022/06/01 12:20:38;;;;;;;;;;;27.20;53.30;;;;;;5094821;28;20357;-78
2022/06/01 12:28:46;;;;;;;;;;;28.50;53.20;;;;;;5086664;28;20273;-77
2022/06/01 12:31:13;;;;;;;;;;;27.00;50.60;;;;;;5076733;28;19909;-77
2022/06/01 12:33:57;;;;;;;;;;;28.40;53.80;;;;;;5093626;28;19919;-78
2022/06/01 12:36:23;;;;;;;;;;;27.00;50.40;;;;;;5094180;28;19961;-78
2022/06/01 12:38:49;;;;;;;;;;;28.20;47.00;;;;;;5091090;28;20065;-77
2022/06/01 12:41:17;;;;;;;;;;;25.50;53.70;;;;;;5084751;28;19954;-77
2022/06/01 12:43:48;;;;;;;;;;;25.20;54.00;;;;;;5072621;28;19913;-77
2022/06/01 12:46:39;;;;;;;;;;;24.50;58.70;;;;;;5087250;28;19908;-77
2022/06/01 12:49:23;;;;;;;;;;;23.80;58.60;;;;;;5087953;28;19908;-77
2022/06/01 12:51:49;;;;;;;;;;;23.60;60.70;;;;;;5093656;28;19968;-77
2022/06/01 12:54:25;;;;;;;;;;;23.00;57.00;;;;;;5093469;28;19969;-76
2022/06/01 12:56:51;;;;;;;;;;;22.70;59.00;;;;;;5093644;28;20373;-77
2022/06/01 12:59:17;;;;;;;;;;;22.60;62.80;;;;;;5093931;28;19915;-77
2022/06/01 13:01:42;;;;;;;;;;;22.40;60.30;;;;;;5093485;28;19908;-76
2022/06/01 13:04:08;;;;;;;;;;;22.50;61.80;;;;;;5092940;28;19912;-76
2022/06/01 13:06:39;;;;;;;;;;;22.40;60.80;;;;;;5093644;28;20305;-77
2022/06/01 13:09:09;;;;;;;;;;;22.30;62.90;;;;;;5087350;28;19908;-77
2022/06/01 13:11:35;;;;;;;;;;;22.10;64.10;;;;;;5082995;28;19915;-77
2022/06/01 13:14:02;;;;;;;;;;;22.30;63.20;;;;;;5076010;28;19915;-76
2022/06/01 13:16:38;;;;;;;;;;;22.80;61.60;;;;;;5074157;28;19962;-76
2022/06/01 13:19:14;;;;;;;;;;;23.00;63.20;;;;;;5073790;28;19908;-76
2022/06/01 13:21:40;;;;;;;;;;;23.60;61.40;;;;;;5073563;28;19923;-77
2022/06/01 13:24:07;;;;;;;;;;;24.30;60.40;;;;;;5073462;28;19908;-76
2022/06/01 13:26:33;;;;;;;;;;;22.80;61.90;;;;;;5079744;28;19912;-75
2022/06/01 13:29:07;;;;;;;;;;;22.60;61.90;;;;;;5091925;28;19919;-77
2022/06/01 13:31:33;;;;;;;;;;;22.60;62.10;;;;;;5093092;28;19912;-76
2022/06/01 13:33:58;;;;;;;;;;;22.00;64.40;;;;;;5092193;28;19995;-76
2022/06/01 13:36:35;;;;;;;;;;;24.00;61.30;;;;;;5093040;28;20327;-76
2022/06/01 13:39:06;;;;;;;;;;;24.10;58.40;;;;;;5091170;28;19908;-76
2022/06/01 13:41:36;;;;;;;;;;;23.80;64.70;;;;;;5088147;28;20353;-76
2022/06/01 13:44:13;;;;;;;;;;;24.50;62.60;;;;;;5076636;28;19958;-76
2022/06/01 13:46:40;;;;;;;;;;;24.50;64.90;;;;;;5073539;28;20394;-76
2022/06/01 13:49:09;;;;;;;;;;;23.50;61.60;;;;;;5073223;28;20379;-76
2022/06/01 13:51:47;;;;;;;;;;;22.60;66.60;;;;;;5073094;28;19919;-76
2022/06/01 13:54:19;;;;;;;;;;;22.00;63.20;;;;;;5072949;28;19909;-76
2022/06/01 13:56:44;;;;;;;;;;;22.20;63.60;;;;;;5072421;28;19912;-76
2022/06/01 13:59:26;;;;;;;;;;;22.40;63.70;;;;;;5073269;28;19916;-76
2022/06/01 14:01:54;;;;;;;;;;;23.50;61.50;;;;;;5086015;28;19970;-76
2022/06/01 14:04:23;;;;;;;;;;;22.70;64.70;;;;;;5072334;28;19983;-77
2022/06/01 14:06:56;;;;;;;;;;;22.50;67.50;;;;;;5073082;28;19923;-77
2022/06/01 14:09:28;;;;;;;;;;;22.40;64.80;;;;;;5084685;28;19908;-78
2022/06/01 14:11:53;;;;;;;;;;;26.00;61.80;;;;;;5077626;28;19957;-77
2022/06/01 14:14:25;;;;;;;;;;;26.50;55.70;;;;;;5072426;28;20396;-77
2022/06/01 14:16:53;;;;;;;;;;;26.00;58.00;;;;;;5072605;28;19916;-77
2022/06/01 14:19:18;;;;;;;;;;;25.40;59.30;;;;;;5073575;28;19912;-77
2022/06/01 14:21:44;;;;;;;;;;;23.70;61.10;;;;;;5090970;28;20360;-76
2022/06/01 14:24:09;;;;;;;;;;;22.90;65.50;;;;;;5091140;28;19908;-76
2022/06/01 14:29:19;;;;;;;;;;;21.30;64.20;;;;;;5072536;28;19934;-76
2022/06/01 14:31:45;;;;;;;;;;;21.50;64.30;;;;;;5072127;28;20389;-77
2022/06/01 14:34:11;;;;;;;;;;;24.30;60.60;;;;;;5071068;28;19915;-76
2022/06/01 14:36:37;;;;;;;;;;;24.70;60.80;;;;;;5069340;28;19927;-77
2022/06/01 14:39:03;;;;;;;;;;;24.90;58.70;;;;;;5081728;28;19912;-77
2022/06/01 14:41:33;;;;;;;;;;;24.50;62.00;;;;;;5078496;28;20381;-76
2022/06/01 14:44:00;;;;;;;;;;;25.40;58.80;;;;;;5075788;28;19923;-77
2022/06/01 14:46:26;;;;;;;;;;;25.70;59.00;;;;;;5077659;28;19938;-77
2022/06/01 14:48:51;;;;;;;;;;;25.10;55.70;;;;;;5079022;28;20357;-76
2022/06/01 14:51:19;;;;;;;;;;;24.70;64.70;;;;;;5071100;28;20007;-78
2022/06/01 14:53:45;;;;;;;;;;;23.90;60.70;;;;;;5079855;28;19919;-77
2022/06/01 14:56:10;;;;;;;;;;;23.50;63.80;;;;;;5090732;28;19908;-76
2022/06/01 14:58:36;;;;;;;;;;;23.00;62.80;;;;;;5090617;28;19951;-77
2022/06/01 15:01:03;;;;;;;;;;;22.80;61.90;;;;;;5090975;28;20285;-77